createdAt,value
2019-02-26T00:01:58.007Z,22.20
2019-02-26T00:04:02.670Z,21.20
2019-02-26T00:06:06.737Z,21.13
2019-02-26T00:08:10.797Z,20.87
2019-02-26T00:10:15.283Z,20.03
2019-02-26T00:12:21.899Z,18.87
2019-02-26T00:14:27.366Z,22.17
2019-02-26T00:16:35.246Z,19.97
2019-02-26T00:18:36.923Z,21.60
2019-02-26T00:20:41.450Z,21.63
2019-02-26T00:22:45.998Z,22.77
2019-02-26T00:24:50.925Z,20.20
2019-02-26T00:26:55.010Z,21.90
2019-02-26T00:28:59.789Z,23.17
2019-02-26T00:31:05.978Z,23.97
2019-02-26T00:33:09.933Z,21.80
2019-02-26T00:35:16.061Z,23.50
2019-02-26T00:37:21.685Z,21.60
2019-02-26T00:39:27.007Z,22.50
2019-02-26T00:41:33.580Z,23.10
2019-02-26T00:43:38.560Z,22.73
2019-02-26T00:45:43.030Z,20.67
2019-02-26T00:47:47.712Z,23.07
2019-02-26T00:49:53.447Z,22.87
2019-02-26T00:51:57.835Z,21.37
2019-02-26T00:54:04.102Z,21.83
2019-02-26T00:56:10.264Z,21.80
2019-02-26T00:58:14.743Z,20.80
2019-02-26T01:00:19.718Z,21.70
2019-02-26T01:02:24.144Z,23.97
2019-02-26T01:04:27.983Z,20.50
2019-02-26T01:06:33.527Z,23.17
2019-02-26T01:08:39.793Z,23.17
2019-02-26T01:10:44.112Z,22.50
2019-02-26T01:12:49.439Z,20.93
2019-02-26T01:14:54.436Z,23.03
2019-02-26T01:16:59.297Z,21.50
2019-02-26T01:19:04.212Z,22.50
2019-02-26T01:21:08.643Z,22.40
2019-02-26T01:23:12.578Z,22.60
2019-02-26T01:25:19.846Z,24.50
2019-02-26T01:27:23.599Z,13.93
2019-02-26T01:29:29.886Z,20.97
2019-02-26T01:31:34.127Z,23.13
2019-02-26T01:33:38.456Z,12.43
2019-02-26T01:35:42.875Z,18.03
2019-02-26T01:37:49.190Z,21.03
2019-02-26T01:39:53.857Z,23.10
2019-02-26T01:41:58.870Z,22.40
2019-02-26T01:44:02.956Z,22.67
2019-02-26T01:46:09.531Z,22.23
2019-02-26T01:48:16.710Z,23.43
2019-02-26T01:50:20.250Z,24.00
2019-02-26T01:52:24.187Z,24.20
2019-02-26T01:54:30.495Z,22.37
2019-02-26T01:56:36.526Z,21.90
2019-02-26T01:58:40.537Z,24.00
2019-02-26T02:00:44.623Z,23.17
2019-02-26T02:02:48.761Z,25.33
2019-02-26T02:04:52.961Z,22.73
2019-02-26T02:06:58.871Z,23.70
2019-02-26T02:09:03.619Z,23.17
2019-02-26T02:11:09.325Z,23.67
2019-02-26T02:13:13.207Z,22.63
2019-02-26T02:15:20.949Z,23.83
2019-02-26T02:17:24.023Z,22.70
2019-02-26T02:19:30.191Z,24.80
2019-02-26T02:21:35.593Z,25.63
2019-02-26T02:23:42.022Z,24.63
2019-02-26T02:25:46.904Z,22.57
2019-02-26T02:27:54.169Z,23.00
2019-02-26T02:29:58.207Z,27.10
2019-02-26T02:32:04.970Z,25.20
2019-02-26T02:34:08.668Z,22.90
2019-02-26T02:36:15.020Z,25.37
2019-02-26T02:38:20.400Z,23.70
2019-02-26T02:40:24.564Z,25.70
2019-02-26T02:42:28.593Z,25.00
2019-02-26T02:44:33.061Z,23.47
2019-02-26T02:46:39.263Z,24.37
2019-02-26T02:48:44.315Z,24.40
2019-02-26T02:50:48.257Z,24.40
2019-02-26T02:52:53.474Z,25.90
2019-02-26T02:54:58.573Z,25.83
2019-02-26T02:57:04.951Z,22.70
2019-02-26T02:59:11.071Z,26.70
2019-02-26T03:01:16.650Z,23.97
2019-02-26T03:03:21.337Z,23.03
2019-02-26T03:05:25.339Z,23.70
2019-02-26T03:07:29.678Z,23.30
2019-02-26T03:09:35.385Z,24.60
2019-02-26T03:11:41.966Z,22.70
2019-02-26T03:13:48.367Z,23.17
2019-02-26T03:15:53.574Z,23.60
2019-02-26T03:17:57.242Z,23.47
2019-02-26T03:20:04.711Z,24.07
2019-02-26T03:22:07.270Z,23.77
2019-02-26T03:24:12.490Z,23.57
2019-02-26T03:26:17.900Z,21.00
2019-02-26T03:28:22.567Z,23.83
2019-02-26T03:30:32.857Z,22.00
2019-02-26T03:32:36.073Z,23.17
2019-02-26T03:34:38.848Z,24.17
2019-02-26T03:36:45.661Z,22.77
2019-02-26T03:38:51.032Z,23.40
2019-02-26T03:40:58.919Z,20.80
2019-02-26T03:43:03.778Z,23.90
2019-02-26T03:45:08.449Z,19.87
2019-02-26T03:47:12.712Z,23.27
2019-02-26T03:49:16.639Z,21.90
2019-02-26T03:51:20.554Z,23.53
2019-02-26T03:53:30.280Z,23.37
2019-02-26T03:55:33.572Z,26.03
2019-02-26T03:57:41.066Z,21.87
2019-02-26T03:59:43.442Z,20.97
2019-02-26T04:01:47.827Z,23.90
2019-02-26T04:03:54.516Z,22.07
2019-02-26T04:06:00.360Z,20.70
2019-02-26T04:08:04.875Z,12.90
2019-02-26T04:10:09.125Z,19.20
2019-02-26T04:12:15.056Z,21.17
2019-02-26T04:14:20.066Z,25.77
2019-02-26T04:16:24.654Z,25.20
2019-02-26T04:18:28.529Z,24.30
2019-02-26T04:20:32.428Z,20.67
2019-02-26T04:22:40.175Z,25.77
2019-02-26T04:24:42.902Z,22.53
2019-02-26T04:27:19.163Z,24.43
2019-02-26T04:29:56.275Z,22.87
2019-02-26T04:32:53.144Z,25.10
2019-02-26T04:35:29.845Z,26.47
2019-02-26T04:38:31.196Z,23.07
2019-02-26T04:41:00.223Z,23.27
2019-02-26T04:43:52.523Z,23.40
2019-02-26T04:46:25.549Z,24.47
2019-02-26T04:48:34.261Z,25.40
2019-02-26T04:50:38.705Z,26.37
2019-02-26T04:52:43.671Z,25.57
2019-02-26T04:54:48.603Z,24.67
2019-02-26T04:56:52.820Z,23.30
2019-02-26T04:58:57.144Z,27.20
2019-02-26T05:01:01.983Z,25.50
2019-02-26T05:03:10.548Z,25.17
2019-02-26T05:05:12.388Z,24.80
2019-02-26T05:07:19.313Z,25.90
2019-02-26T05:09:24.640Z,24.23
2019-02-26T05:11:32.669Z,24.97
2019-02-26T05:13:34.959Z,25.17
2019-02-26T05:15:39.343Z,27.60
2019-02-26T05:17:43.242Z,24.83
2019-02-26T05:19:48.739Z,23.03
2019-02-26T05:21:56.737Z,22.40
2019-02-26T05:24:00.256Z,22.67
2019-02-26T05:26:08.092Z,25.80
2019-02-26T05:28:14.039Z,23.40
2019-02-26T05:30:21.686Z,23.97
2019-02-26T05:32:25.169Z,21.13
2019-02-26T05:34:29.163Z,22.40
2019-02-26T05:36:36.244Z,24.40
2019-02-26T05:38:39.310Z,23.33
2019-02-26T05:40:45.287Z,22.97
2019-02-26T05:42:49.431Z,23.27
2019-02-26T05:44:56.600Z,27.70
2019-02-26T05:47:01.722Z,16.63
2019-02-26T05:49:09.734Z,24.43
2019-02-26T05:51:12.511Z,25.00
2019-02-26T05:53:17.392Z,23.70
2019-02-26T05:55:23.684Z,28.50
2019-02-26T05:57:32.352Z,24.13
2019-02-26T05:59:33.376Z,27.83
2019-02-26T06:01:37.872Z,25.00
2019-02-26T06:03:44.260Z,25.30
2019-02-26T06:05:49.006Z,26.50
2019-02-26T06:07:53.655Z,21.40
2019-02-26T06:09:59.198Z,25.27
2019-02-26T06:12:03.839Z,25.70
2019-02-26T06:14:12.108Z,27.33
2019-02-26T06:16:13.783Z,23.63
2019-02-26T06:18:17.895Z,25.60
2019-02-26T06:20:23.631Z,24.67
2019-02-26T06:22:29.639Z,24.20
2019-02-26T06:24:35.742Z,25.83
2019-02-26T06:26:41.196Z,23.70
2019-02-26T06:28:52.793Z,25.90
2019-02-26T06:30:57.031Z,27.03
2019-02-26T06:33:04.151Z,27.10
2019-02-26T06:35:08.548Z,26.30
2019-02-26T06:37:16.645Z,25.03
2019-02-26T06:39:22.604Z,31.83
2019-02-26T06:41:27.131Z,28.07
2019-02-26T06:43:35.481Z,28.83
2019-02-26T06:45:37.975Z,25.90
2019-02-26T06:47:45.610Z,25.90
2019-02-26T06:49:50.873Z,26.60
2019-02-26T06:51:56.300Z,27.30
2019-02-26T06:54:01.161Z,25.90
2019-02-26T06:56:05.655Z,27.63
2019-02-26T06:58:26.182Z,26.07
2019-02-26T07:00:30.076Z,28.30
2019-02-26T07:02:34.299Z,28.87
2019-02-26T07:04:38.658Z,28.20
2019-02-26T07:06:42.502Z,26.70
2019-02-26T07:08:48.478Z,26.60
2019-02-26T07:10:52.179Z,26.87
2019-02-26T07:12:56.968Z,24.60
2019-02-26T07:15:00.929Z,28.37
2019-02-26T07:17:05.339Z,23.17
2019-02-26T07:19:11.604Z,26.80
2019-02-26T07:21:15.576Z,26.90
2019-02-26T07:23:20.304Z,27.83
2019-02-26T07:25:24.214Z,29.20
2019-02-26T07:27:28.831Z,27.90
2019-02-26T07:29:37.353Z,25.80
2019-02-26T07:31:40.368Z,26.43
2019-02-26T07:33:44.478Z,26.57
2019-02-26T07:35:49.196Z,28.10
2019-02-26T07:37:54.611Z,24.97
2019-02-26T07:39:59.078Z,26.20
2019-02-26T07:42:02.906Z,23.93
2019-02-26T07:44:12.650Z,23.50
2019-02-26T07:46:14.699Z,23.60
2019-02-26T07:48:21.366Z,26.10
2019-02-26T07:50:24.899Z,22.43
2019-02-26T07:52:31.253Z,19.73
2019-02-26T07:54:37.736Z,29.30
2019-02-26T07:56:40.968Z,27.40
2019-02-26T07:58:45.714Z,23.90
2019-02-26T08:00:52.002Z,16.80
2019-02-26T08:02:57.786Z,26.17
2019-02-26T08:05:01.727Z,27.00
2019-02-26T08:07:05.904Z,26.20
2019-02-26T08:09:13.503Z,28.60
2019-02-26T08:11:15.842Z,26.07
2019-02-26T08:13:19.760Z,28.90
2019-02-26T08:15:23.680Z,28.30
2019-02-26T08:17:27.783Z,20.37
2019-02-26T08:19:34.425Z,25.10
2019-02-26T08:21:39.117Z,24.90
2019-02-26T08:23:43.656Z,27.80
2019-02-26T08:25:49.926Z,26.00
2019-02-26T08:27:56.599Z,29.30
2019-02-26T08:30:01.292Z,28.40
2019-02-26T08:32:05.879Z,30.27
2019-02-26T08:34:12.674Z,24.10
2019-02-26T08:36:16.330Z,28.17
2019-02-26T08:38:20.255Z,30.23
2019-02-26T08:40:24.663Z,29.13
2019-02-26T08:42:28.511Z,24.47
2019-02-26T08:44:32.409Z,28.57
2019-02-26T08:46:37.837Z,25.50
2019-02-26T08:48:43.853Z,29.70
2019-02-26T08:50:48.084Z,29.60
2019-02-26T08:52:55.361Z,23.47
2019-02-26T08:54:59.028Z,29.27
2019-02-26T08:57:03.251Z,28.93
2019-02-26T08:59:07.319Z,25.47
2019-02-26T09:01:11.275Z,20.90
2019-02-26T09:03:17.735Z,30.40
2019-02-26T09:05:23.317Z,28.70
2019-02-26T09:07:27.811Z,29.57
2019-02-26T09:09:32.856Z,27.83
2019-02-26T09:11:38.818Z,25.37
2019-02-26T09:13:43.940Z,29.07
2019-02-26T09:15:48.186Z,28.63
2019-02-26T09:17:52.527Z,25.73
2019-02-26T09:20:06.965Z,28.40
2019-02-26T09:22:04.566Z,26.60
2019-02-26T09:24:08.463Z,28.70
2019-02-26T09:26:13.587Z,29.50
2019-02-26T09:28:17.935Z,23.50
2019-02-26T09:30:22.537Z,27.77
2019-02-26T09:32:28.299Z,16.67
2019-02-26T09:34:34.103Z,27.63
2019-02-26T09:36:38.615Z,28.80
2019-02-26T09:38:44.317Z,21.53
2019-02-26T09:40:50.026Z,28.77
2019-02-26T09:42:57.257Z,28.53
2019-02-26T09:45:00.617Z,29.30
2019-02-26T09:47:05.471Z,26.00
2019-02-26T09:49:12.592Z,27.27
2019-02-26T09:51:17.114Z,25.60
2019-02-26T09:53:21.406Z,26.27
2019-02-26T09:55:25.262Z,27.67
2019-02-26T09:57:30.224Z,25.03
2019-02-26T09:59:35.927Z,21.50
2019-02-26T10:01:42.841Z,27.60
2019-02-26T10:03:46.552Z,28.83
2019-02-26T10:05:52.743Z,28.30
2019-02-26T10:07:59.714Z,25.53
2019-02-26T10:10:05.481Z,27.00
2019-02-26T10:12:12.278Z,21.50
2019-02-26T10:14:15.072Z,19.03
2019-02-26T10:16:21.084Z,27.30
2019-02-26T10:18:25.639Z,29.60
2019-02-26T10:20:31.945Z,23.40
2019-02-26T10:22:38.517Z,26.80
2019-02-26T10:24:42.118Z,25.97
2019-02-26T10:26:47.091Z,27.27
2019-02-26T10:28:57.775Z,24.37
2019-02-26T10:31:01.774Z,26.83
2019-02-26T10:33:04.003Z,25.93
2019-02-26T10:35:13.883Z,20.00
2019-02-26T10:37:16.501Z,24.77
2019-02-26T10:39:23.201Z,25.60
2019-02-26T10:41:27.313Z,25.90
2019-02-26T10:43:31.745Z,25.23
2019-02-26T10:45:38.676Z,21.33
2019-02-26T10:47:42.031Z,18.07
2019-02-26T10:49:46.760Z,22.00
2019-02-26T10:51:51.783Z,24.43
2019-02-26T10:53:57.553Z,25.20
2019-02-26T10:56:01.690Z,23.83
2019-02-26T10:58:09.722Z,21.17
2019-02-26T11:00:25.982Z,24.07
2019-02-26T11:02:29.376Z,23.37
2019-02-26T11:04:35.550Z,25.07
2019-02-26T11:06:41.821Z,23.83
2019-02-26T11:08:47.526Z,24.27
2019-02-26T11:10:52.364Z,27.20
2019-02-26T11:12:59.417Z,25.00
2019-02-26T11:15:04.851Z,22.50
2019-02-26T11:17:09.321Z,19.60
2019-02-26T11:19:13.691Z,21.10
2019-02-26T11:21:17.866Z,19.87
2019-02-26T11:23:30.313Z,19.37
2019-02-26T11:25:27.915Z,20.27
2019-02-26T11:27:32.244Z,20.70
2019-02-26T11:29:38.765Z,17.77
2019-02-26T11:31:44.698Z,19.90
2019-02-26T11:33:49.911Z,21.13
2019-02-26T11:35:54.110Z,21.33
2019-02-26T11:37:58.336Z,24.20
2019-02-26T11:40:05.349Z,21.90
2019-02-26T11:42:10.448Z,22.30
2019-02-26T11:44:19.909Z,22.53
2019-02-26T11:46:22.526Z,22.73
2019-02-26T11:48:28.182Z,22.90
2019-02-26T11:50:32.292Z,22.27
2019-02-26T11:52:36.973Z,24.33
2019-02-26T11:54:42.226Z,25.90
2019-02-26T11:56:49.889Z,23.47
2019-02-26T11:58:54.381Z,23.07
2019-02-26T12:01:00.102Z,27.00
2019-02-26T12:03:04.513Z,27.73
2019-02-26T12:05:10.690Z,27.67
2019-02-26T12:07:14.935Z,27.40
2019-02-26T12:09:19.311Z,27.80
2019-02-26T12:11:23.466Z,27.47
2019-02-26T12:13:27.888Z,26.60
2019-02-26T12:15:33.489Z,26.33
2019-02-26T12:17:38.955Z,26.67
2019-02-26T12:19:43.116Z,25.70
2019-02-26T12:21:49.449Z,25.73
2019-02-26T12:23:53.254Z,25.10
2019-02-26T12:25:59.241Z,24.40
2019-02-26T12:28:05.500Z,24.53
2019-02-26T12:30:15.682Z,22.40
2019-02-26T12:32:20.011Z,23.30
2019-02-26T12:34:26.077Z,23.07
2019-02-26T12:36:32.527Z,24.33
2019-02-26T12:38:36.756Z,23.90
2019-02-26T12:40:44.192Z,24.70
2019-02-26T12:42:47.111Z,22.97
2019-02-26T12:44:51.240Z,22.80
2019-02-26T12:46:56.859Z,22.77
2019-02-26T12:49:02.969Z,22.17
2019-02-26T12:51:08.192Z,20.63
2019-02-26T12:53:17.183Z,19.50
2019-02-26T12:55:21.950Z,20.50
2019-02-26T12:57:27.048Z,17.10
2019-02-26T12:59:31.802Z,15.10
2019-02-26T13:01:39.530Z,17.07
2019-02-26T13:03:46.235Z,17.37
2019-02-26T13:05:51.603Z,18.83
2019-02-26T13:07:55.249Z,15.77
2019-02-26T13:10:03.368Z,19.27
2019-02-26T13:12:06.175Z,21.07
2019-02-26T13:14:10.327Z,22.10
2019-02-26T13:16:15.143Z,19.43
2019-02-26T13:18:19.823Z,19.57
2019-02-26T13:20:24.050Z,19.80
2019-02-26T13:22:28.247Z,18.17
2019-02-26T13:24:32.586Z,20.47
2019-02-26T13:26:39.040Z,18.97
2019-02-26T13:28:46.768Z,19.53
2019-02-26T13:30:48.575Z,17.47
2019-02-26T13:33:00.515Z,16.83
2019-02-26T13:35:01.000Z,17.33
2019-02-26T13:37:05.382Z,15.47
2019-02-26T13:39:10.172Z,16.70
2019-02-26T13:41:28.882Z,18.50
2019-02-26T13:43:20.944Z,17.87
2019-02-26T13:45:26.384Z,17.27
2019-02-26T13:47:30.843Z,14.90
2019-02-26T13:49:35.043Z,18.47
2019-02-26T13:51:41.347Z,14.93
2019-02-26T13:53:46.016Z,16.40
2019-02-26T13:55:50.655Z,14.97
2019-02-26T13:57:55.164Z,12.03
2019-02-26T13:59:59.065Z,17.07
2019-02-26T14:02:03.234Z,16.10
2019-02-26T14:04:07.089Z,16.17
2019-02-26T14:06:11.247Z,16.47
2019-02-26T14:08:15.611Z,15.37
2019-02-26T14:10:19.546Z,14.50
2019-02-26T14:12:24.087Z,15.83
2019-02-26T14:14:28.282Z,15.20
2019-02-26T14:16:33.077Z,16.80
2019-02-26T14:18:37.654Z,17.50
2019-02-26T14:20:41.792Z,16.60
2019-02-26T14:22:46.207Z,16.07
2019-02-26T14:24:51.352Z,18.37
2019-02-26T14:26:55.671Z,17.53
2019-02-26T14:28:59.762Z,18.37
2019-02-26T14:31:03.907Z,17.73
2019-02-26T14:33:10.823Z,17.77
2019-02-26T14:35:15.470Z,19.13
2019-02-26T14:37:19.295Z,16.63
2019-02-26T14:39:23.923Z,17.80
2019-02-26T14:41:28.307Z,17.27
2019-02-26T14:43:32.395Z,17.90
2019-02-26T14:45:36.971Z,20.00
2019-02-26T14:47:41.069Z,17.37
2019-02-26T14:49:45.186Z,15.70
2019-02-26T14:51:49.095Z,19.80
2019-02-26T14:53:53.883Z,19.37
2019-02-26T14:55:57.730Z,18.47
2019-02-26T14:58:01.953Z,19.40
2019-02-26T15:00:10.003Z,19.20
2019-02-26T15:02:13.849Z,18.27
2019-02-26T15:04:17.927Z,19.93
2019-02-26T15:06:21.803Z,19.90
2019-02-26T15:08:26.152Z,19.67
2019-02-26T15:10:29.977Z,20.20
2019-02-26T15:12:34.447Z,20.83
2019-02-26T15:14:38.809Z,18.53
2019-02-26T15:16:43.223Z,19.77
2019-02-26T15:18:47.308Z,22.77
2019-02-26T15:20:51.211Z,20.90
2019-02-26T15:22:55.723Z,18.90
2019-02-26T15:24:59.841Z,16.87
2019-02-26T15:27:04.306Z,18.67
2019-02-26T15:29:08.733Z,20.87
2019-02-26T15:31:13.087Z,21.70
2019-02-26T15:33:17.418Z,20.93
2019-02-26T15:35:21.578Z,19.37
2019-02-26T15:37:25.771Z,22.00
2019-02-26T15:39:30.395Z,20.63
2019-02-26T15:41:34.719Z,19.17
2019-02-26T15:43:40.049Z,17.20
2019-02-26T15:45:51.735Z,23.37
2019-02-26T15:47:50.972Z,14.73
2019-02-26T15:49:55.668Z,16.73
2019-02-26T15:52:00.246Z,19.83
2019-02-26T15:54:04.912Z,22.67
2019-02-26T15:56:09.215Z,21.10
2019-02-26T15:58:13.321Z,16.30
2019-02-26T16:00:19.703Z,19.40
2019-02-26T16:02:25.969Z,17.17
2019-02-26T16:04:30.286Z,17.60
2019-02-26T16:06:34.468Z,15.90
2019-02-26T16:08:41.272Z,18.03
2019-02-26T16:10:44.685Z,19.00
2019-02-26T16:12:48.857Z,18.37
2019-02-26T16:14:52.767Z,16.80
2019-02-26T16:16:57.084Z,19.10
2019-02-26T16:19:01.335Z,19.03
2019-02-26T16:21:05.563Z,19.43
2019-02-26T16:23:09.905Z,21.60
2019-02-26T16:25:13.923Z,19.50
2019-02-26T16:27:19.826Z,18.87
2019-02-26T16:29:23.883Z,18.53
2019-02-26T16:31:30.024Z,18.23
2019-02-26T16:33:34.633Z,18.17
2019-02-26T16:35:39.244Z,21.13
2019-02-26T16:37:43.654Z,20.23
2019-02-26T16:39:47.922Z,20.23
2019-02-26T16:41:52.311Z,21.60
2019-02-26T16:43:56.987Z,19.07
2019-02-26T16:46:01.484Z,20.23
2019-02-26T16:48:05.731Z,20.13
2019-02-26T16:50:13.226Z,20.50
2019-02-26T16:52:17.482Z,19.83
2019-02-26T16:54:22.252Z,18.47
2019-02-26T16:56:29.345Z,20.87
2019-02-26T16:58:35.200Z,19.57
2019-02-26T17:00:39.473Z,18.20
2019-02-26T17:02:43.928Z,21.20
2019-02-26T17:04:48.048Z,19.50
2019-02-26T17:06:53.935Z,19.90
2019-02-26T17:08:58.556Z,19.23
2019-02-26T17:11:03.039Z,21.07
2019-02-26T17:13:07.914Z,19.20
2019-02-26T17:15:17.605Z,19.63
2019-02-26T17:17:24.188Z,17.27
2019-02-26T17:19:28.383Z,19.33
2019-02-26T17:21:32.319Z,18.10
2019-02-26T17:23:37.232Z,17.80
2019-02-26T17:25:41.863Z,17.67
2019-02-26T17:27:46.820Z,19.50
2019-02-26T17:29:50.887Z,21.17
2019-02-26T17:31:55.748Z,19.50
2019-02-26T17:33:59.658Z,21.27
2019-02-26T17:36:03.537Z,19.73
2019-02-26T17:38:08.183Z,20.07
2019-02-26T17:40:13.763Z,21.00
2019-02-26T17:42:18.533Z,20.73
2019-02-26T17:44:23.915Z,19.67
2019-02-26T17:46:28.063Z,18.50
2019-02-26T17:48:43.085Z,19.17
2019-02-26T17:50:38.839Z,17.80
2019-02-26T17:52:43.634Z,18.60
2019-02-26T17:54:49.742Z,18.37
2019-02-26T17:56:54.623Z,19.23
2019-02-26T17:58:58.765Z,17.63
2019-02-26T18:01:04.262Z,19.00
2019-02-26T18:03:08.267Z,19.40
2019-02-26T18:05:12.454Z,20.77
2019-02-26T18:07:16.681Z,19.77
2019-02-26T18:09:22.011Z,17.53
2019-02-26T18:11:26.687Z,19.07
2019-02-26T18:13:31.147Z,20.27
2019-02-26T18:15:36.131Z,18.90
2019-02-26T18:17:40.200Z,18.63
2019-02-26T18:19:45.198Z,19.87
2019-02-26T18:21:51.706Z,19.60
2019-02-26T18:23:55.725Z,18.60
2019-02-26T18:25:59.946Z,20.00
2019-02-26T18:28:08.654Z,18.60
2019-02-26T18:30:16.274Z,19.40
2019-02-26T18:32:20.140Z,19.70
2019-02-26T18:34:24.467Z,20.60
2019-02-26T18:36:28.343Z,21.67
2019-02-26T18:38:32.960Z,20.90
2019-02-26T18:40:37.783Z,20.60
2019-02-26T18:42:41.941Z,18.33
2019-02-26T18:44:45.831Z,19.20
2019-02-26T18:46:50.035Z,20.20
2019-02-26T18:48:54.751Z,19.60
2019-02-26T18:50:59.670Z,19.10
2019-02-26T18:53:05.460Z,19.20
2019-02-26T18:55:12.734Z,21.67
2019-02-26T18:57:16.635Z,22.57
2019-02-26T18:59:21.589Z,21.40
2019-02-26T19:01:28.470Z,20.87
2019-02-26T19:03:33.162Z,19.30
2019-02-26T19:05:37.115Z,20.17
2019-02-26T19:07:41.574Z,20.10
2019-02-26T19:09:45.630Z,19.07
2019-02-26T19:11:50.067Z,18.67
2019-02-26T19:13:54.487Z,19.57
2019-02-26T19:15:58.854Z,20.53
2019-02-26T19:18:03.465Z,18.50
2019-02-26T19:20:09.391Z,20.00
2019-02-26T19:22:13.485Z,21.90
2019-02-26T19:24:17.726Z,22.20
2019-02-26T19:26:22.087Z,22.57
2019-02-26T19:28:26.718Z,19.63
2019-02-26T19:30:31.474Z,21.23
2019-02-26T19:32:35.923Z,21.57
2019-02-26T19:34:40.017Z,19.47
2019-02-26T19:36:45.802Z,21.70
2019-02-26T19:38:49.744Z,21.87
2019-02-26T19:40:53.648Z,22.20
2019-02-26T19:42:58.324Z,21.17
2019-02-26T19:45:02.459Z,21.30
2019-02-26T19:47:06.556Z,22.57
2019-02-26T19:49:10.851Z,20.97
2019-02-26T19:51:14.911Z,22.20
2019-02-26T19:53:18.969Z,22.30
2019-02-26T19:55:26.575Z,20.93
2019-02-26T19:57:30.971Z,22.50
2019-02-26T19:59:35.353Z,20.97
2019-02-26T20:01:39.492Z,22.93
2019-02-26T20:03:43.427Z,19.63
2019-02-26T20:05:47.828Z,21.10
2019-02-26T20:07:53.233Z,22.67
2019-02-26T20:09:58.471Z,20.43
2019-02-26T20:12:02.680Z,21.10
2019-02-26T20:14:06.615Z,23.20
2019-02-26T20:16:11.047Z,21.53
2019-02-26T20:18:20.587Z,22.73
2019-02-26T20:20:21.212Z,21.03
2019-02-26T20:22:25.470Z,23.03
2019-02-26T20:24:29.339Z,20.40
2019-02-26T20:26:33.471Z,21.80
2019-02-26T20:28:37.833Z,20.80
2019-02-26T20:30:41.761Z,21.03
2019-02-26T20:32:46.499Z,19.33
2019-02-26T20:34:50.895Z,21.90
2019-02-26T20:36:55.475Z,20.90
2019-02-26T20:38:59.888Z,21.10
2019-02-26T20:41:04.313Z,21.13
2019-02-26T20:43:08.703Z,21.70
2019-02-26T20:45:17.803Z,21.50
2019-02-26T20:47:20.303Z,21.07
2019-02-26T20:49:24.692Z,20.53
2019-02-26T20:51:28.981Z,21.60
2019-02-26T20:53:33.630Z,23.07
2019-02-26T20:55:37.820Z,22.60
2019-02-26T20:57:41.671Z,21.73
2019-02-26T20:59:46.151Z,22.73
2019-02-26T21:01:50.029Z,24.57
2019-02-26T21:03:54.390Z,22.53
2019-02-26T21:05:59.107Z,21.67
2019-02-26T21:08:04.157Z,22.63
2019-02-26T21:10:09.436Z,21.13
2019-02-26T21:12:13.744Z,20.77
2019-02-26T21:14:17.757Z,20.40
2019-02-26T21:16:22.315Z,21.07
2019-02-26T21:18:30.534Z,20.80
2019-02-26T21:20:32.273Z,21.13
2019-02-26T21:22:37.570Z,21.83
2019-02-26T21:24:41.799Z,22.60
2019-02-26T21:26:45.957Z,23.60
2019-02-26T21:28:50.053Z,24.10
2019-02-26T21:30:54.323Z,22.80
2019-02-26T21:32:58.735Z,23.60
2019-02-26T21:35:03.195Z,23.20
2019-02-26T21:37:07.311Z,23.37
2019-02-26T21:39:11.682Z,24.10
2019-02-26T21:41:15.871Z,24.20
2019-02-26T21:43:21.439Z,22.20
2019-02-26T21:45:25.275Z,22.87
2019-02-26T21:47:29.855Z,22.53
2019-02-26T21:49:34.288Z,20.50
2019-02-26T21:51:38.403Z,19.93
2019-02-26T21:53:42.967Z,23.83
2019-02-26T21:55:47.139Z,21.90
2019-02-26T21:57:54.564Z,22.33
2019-02-26T21:59:58.613Z,21.67
2019-02-26T22:02:02.516Z,22.10
2019-02-26T22:04:06.867Z,22.87
2019-02-26T22:06:11.570Z,22.80
2019-02-26T22:08:15.759Z,24.53
2019-02-26T22:10:20.485Z,24.07
2019-02-26T22:12:24.733Z,21.93
2019-02-26T22:14:28.675Z,22.40
2019-02-26T22:16:33.336Z,23.27
2019-02-26T22:18:38.665Z,23.30
2019-02-26T22:20:43.251Z,23.17
2019-02-26T22:22:47.194Z,22.40
2019-02-26T22:24:51.079Z,22.10
2019-02-26T22:26:59.466Z,23.93
2019-02-26T22:29:00.883Z,22.80
2019-02-26T22:31:04.905Z,24.03
2019-02-26T22:33:09.279Z,24.20
2019-02-26T22:35:13.619Z,24.97
2019-02-26T22:37:18.055Z,23.10
2019-02-26T22:39:22.595Z,27.27
2019-02-26T22:41:27.211Z,23.90
2019-02-26T22:43:32.055Z,24.50
2019-02-26T22:45:36.387Z,24.17
2019-02-26T22:47:41.493Z,26.40
2019-02-26T22:49:46.125Z,28.80
2019-02-26T22:51:50.591Z,26.40
2019-02-26T22:53:55.445Z,27.10
2019-02-26T22:56:00.238Z,26.13
2019-02-26T22:58:04.714Z,25.77
2019-02-26T23:00:34.989Z,29.30
2019-02-26T23:02:40.830Z,28.33
2019-02-26T23:04:45.083Z,33.20
2019-02-26T23:06:49.488Z,32.10
2019-02-26T23:08:53.947Z,29.23
2019-02-26T23:10:58.067Z,32.90
2019-02-26T23:13:02.111Z,30.97
2019-02-26T23:15:06.687Z,31.60
2019-02-26T23:17:11.411Z,30.30
2019-02-26T23:19:15.384Z,29.27
2019-02-26T23:21:20.347Z,29.20
2019-02-26T23:23:24.272Z,25.77
2019-02-26T23:25:29.440Z,23.80
2019-02-26T23:27:33.848Z,23.07
2019-02-26T23:29:41.387Z,22.60
2019-02-26T23:31:45.603Z,23.83
2019-02-26T23:33:50.539Z,21.53
2019-02-26T23:35:55.115Z,21.97
2019-02-26T23:38:01.032Z,22.07
2019-02-26T23:40:06.420Z,22.10
2019-02-26T23:42:11.023Z,22.13
2019-02-26T23:44:17.824Z,25.20
2019-02-26T23:46:20.915Z,23.00
2019-02-26T23:48:24.887Z,21.03
2019-02-26T23:50:28.811Z,23.10
2019-02-26T23:52:33.680Z,20.97
2019-02-26T23:54:39.950Z,20.90
2019-02-26T23:56:43.667Z,22.03
2019-02-26T23:58:48.211Z,21.00
